Time;durP1;ratioP1;P1;durP2;ratioP2;P2;SDS_P1;SDS_P2;PMS_P1;PMS_P2;Temp;Humidity;BMP_temperature;BMP_pressure;BME280_temperature;BME280_humidity;BME280_pressure;Samples;Min_cycle;Max_cycle;Signal;HPM_P1;HPM_P2
2021/08/09 00:03:41;;;;;;;7.15;3.33;;;;;;;14.42;81.62;101264.25;10462833;28;20236;-68
2021/08/09 00:08:43;;;;;;;7.45;3.33;;;;;;;14.53;82.64;101266.19;10462975;28;20041;-68
2021/08/09 00:13:47;;;;;;;11.23;3.38;;;;;;;14.43;83.05;101259.84;10462350;28;20508;-67
2021/08/09 00:18:49;;;;;;;7.78;3.38;;;;;;;14.34;83.34;101263.94;10462056;28;20064;-66
2021/08/09 00:23:52;;;;;;;4.88;2.53;;;;;;;14.48;81.61;101261.22;10461977;28;20508;-68
2021/08/09 00:28:54;;;;;;;13.40;3.78;;;;;;;14.23;83.67;101269.06;10461262;28;20049;-66
2021/08/09 00:33:56;;;;;;;8.10;2.78;;;;;;;14.44;81.94;101262.38;10461988;28;20045;-65
2021/08/09 00:38:59;;;;;;;6.53;3.67;;;;;;;14.40;82.17;101267.94;10444435;28;20040;-66
2021/08/09 00:44:01;;;;;;;7.47;3.00;;;;;;;14.07;83.94;101270.06;10460711;28;20049;-67
2021/08/09 00:49:03;;;;;;;11.23;3.40;;;;;;;14.20;84.00;101280.63;10460861;28;20485;-66
2021/08/09 00:54:06;;;;;;;4.68;2.97;;;;;;;14.15;83.31;101282.72;10461274;28;20075;-67
2021/08/09 00:59:08;;;;;;;6.72;2.80;;;;;;;14.10;83.12;101282.16;10460701;28;20397;-67
2021/08/09 01:04:11;;;;;;;9.85;3.88;;;;;;;14.12;82.49;101278.50;10460501;28;20045;-65
2021/08/09 01:09:22;;;;;;;13.18;3.80;;;;;;;13.98;84.16;101290.84;10460002;28;20056;-66
2021/08/09 01:14:30;;;;;;;7.90;3.88;;;;;;;14.05;82.55;101282.44;10460208;28;20055;-66
2021/08/09 01:19:42;;;;;;;8.70;3.35;;;;;;;14.23;82.19;101285.69;10459692;28;20045;-65
2021/08/09 01:25:08;;;;;;;7.60;3.13;;;;;;;14.03;83.86;101286.16;10459565;28;20045;-67
2021/08/09 01:30:11;;;;;;;8.88;3.88;;;;;;;13.94;83.29;101285.78;10459289;28;20397;-66
2021/08/09 01:35:15;;;;;;;11.02;3.28;;;;;;;14.19;81.44;101288.63;10457745;28;20481;-67
2021/08/09 01:40:18;;;;;;;6.10;3.38;;;;;;;14.08;83.65;101289.31;10457569;28;20051;-65
2021/08/09 01:45:21;;;;;;;10.55;3.95;;;;;;;13.81;83.63;101295.41;10457692;28;20048;-65
2021/08/09 01:50:23;;;;;;;7.95;3.20;;;;;;;14.01;81.97;101295.94;10457560;28;20048;-65
2021/08/09 01:55:26;;;;;;;8.93;4.25;;;;;;;13.77;84.43;101304.44;10457539;28;20063;-64
2021/08/09 02:00:29;;;;;;;16.17;5.75;;;;;;;13.90;82.96;101300.09;10458040;28;20099;-66
2021/08/09 02:05:31;;;;;;;10.50;3.90;;;;;;;14.19;81.81;101294.75;10456815;28;20405;-66
2021/08/09 02:10:34;;;;;;;9.65;3.92;;;;;;;13.93;81.62;101302.50;10456354;28;20044;-65
2021/08/09 02:15:50;;;;;;;10.63;4.13;;;;;;;13.79;81.90;101309.63;10456588;28;20071;-65
2021/08/09 02:20:56;;;;;;;13.35;4.88;;;;;;;13.72;83.15;101301.25;10457425;28;20045;-65
2021/08/09 02:25:59;;;;;;;10.48;3.72;;;;;;;13.85;82.13;101309.22;10457845;28;20128;-66
2021/08/09 02:31:04;;;;;;;9.05;3.42;;;;;;;14.35;79.76;101302.47;10456134;28;20524;-66
2021/08/09 02:36:07;;;;;;;8.38;3.83;;;;;;;13.88;82.06;101299.31;10456802;28;20045;-63
2021/08/09 02:41:10;;;;;;;7.70;3.88;;;;;;;14.21;80.55;101299.91;10456241;28;20049;-66
2021/08/09 02:46:12;;;;;;;13.35;3.72;;;;;;;14.05;81.05;101300.88;10439191;28;20075;-66
2021/08/09 02:51:18;;;;;;;11.63;3.67;;;;;;;13.97;80.77;101305.81;10455396;28;20052;-66
2021/08/09 02:56:24;;;;;;;9.63;3.22;;;;;;;14.06;80.82;101299.13;10455504;28;20060;-67
2021/08/09 03:01:28;;;;;;;12.73;4.50;;;;;;;13.96;80.82;101298.00;10439717;28;20059;-65
2021/08/09 03:06:32;;;;;;;14.82;4.47;;;;;;;13.85;81.39;101294.28;10454989;28;20405;-66
2021/08/09 03:11:34;;;;;;;4.15;2.70;;;;;;;14.10;79.46;101290.94;10438786;28;20045;-66
2021/08/09 03:16:37;;;;;;;8.95;3.22;;;;;;;14.07;79.88;101301.66;10455379;28;20056;-66
2021/08/09 03:21:39;;;;;;;10.27;3.70;;;;;;;14.08;80.24;101302.50;10455032;28;20052;-66
2021/08/09 03:26:41;;;;;;;11.68;4.50;;;;;;;14.00;80.78;101300.31;10456114;28;20047;-65
2021/08/09 03:31:44;;;;;;;10.05;3.17;;;;;;;14.16;79.40;101313.38;10455856;28;20053;-65
2021/08/09 03:36:47;;;;;;;12.68;3.90;;;;;;;13.92;80.99;101306.09;10456875;28;20057;-64
2021/08/09 03:41:49;;;;;;;9.82;4.50;;;;;;;13.92;81.37;101315.78;10455637;28;20045;-65
2021/08/09 03:46:52;;;;;;;7.53;3.15;;;;;;;13.98;80.60;101314.56;10455889;28;20045;-65
2021/08/09 03:51:54;;;;;;;11.05;3.28;;;;;;;14.12;80.53;101318.00;10455432;28;20057;-67
2021/08/09 03:56:56;;;;;;;8.07;3.75;;;;;;;13.95;81.51;101320.84;10437738;28;20057;-67
2021/08/09 04:01:59;;;;;;;11.60;3.40;;;;;;;13.97;81.79;101310.22;10459818;28;20103;-67
2021/08/09 04:07:01;;;;;;;7.85;3.42;;;;;;;14.08;82.52;101313.00;10444948;28;20056;-65
2021/08/09 04:12:04;;;;;;;8.70;3.50;;;;;;;13.80;81.47;101316.53;10462353;28;20049;-66
2021/08/09 04:17:06;;;;;;;12.15;4.13;;;;;;;13.81;82.52;101318.25;10462121;28;20059;-67
2021/08/09 04:22:08;;;;;;;19.60;3.63;;;;;;;13.79;82.64;101328.88;10462166;28;20053;-66
2021/08/09 04:27:11;;;;;;;8.30;3.17;;;;;;;13.95;82.88;101344.53;10461826;28;20055;-65
2021/08/09 04:32:16;;;;;;;11.82;3.72;;;;;;;13.94;82.57;101343.69;10461847;28;20048;-65
2021/08/09 04:37:20;;;;;;;10.15;4.03;;;;;;;13.87;82.54;101344.16;10461749;28;20052;-66
2021/08/09 04:42:22;;;;;;;10.98;3.75;;;;;;;13.86;83.10;101342.50;10461383;28;20045;-65
2021/08/09 04:47:26;;;;;;;7.93;3.15;;;;;;;13.87;82.89;101344.16;10460805;28;20053;-65
2021/08/09 04:52:29;;;;;;;10.88;3.33;;;;;;;13.92;82.97;101340.31;10460531;28;20515;-68
2021/08/09 04:57:31;;;;;;;7.07;3.13;;;;;;;14.03;82.45;101350.16;10459549;28;20048;-68
2021/08/09 05:02:37;;;;;;;10.65;3.47;;;;;;;14.08;82.50;101345.44;10460484;28;20460;-66
2021/08/09 05:07:39;;;;;;;11.00;4.45;;;;;;;13.98;81.97;101339.06;10460294;28;20052;-65
2021/08/09 05:12:41;;;;;;;13.35;3.95;;;;;;;14.15;82.98;101352.97;10459329;28;20045;-68
2021/08/09 05:17:44;;;;;;;9.75;3.72;;;;;;;14.38;82.29;101346.22;10459800;28;20045;-66
2021/08/09 05:22:46;;;;;;;11.68;4.05;;;;;;;14.36;82.11;101358.66;10460046;28;20056;-66
2021/08/09 05:27:49;;;;;;;8.55;3.20;;;;;;;14.34;81.64;101353.50;10459139;28;20474;-65
2021/08/09 05:32:52;;;;;;;7.80;3.22;;;;;;;14.45;80.07;101350.97;10459385;28;20060;-66
2021/08/09 05:37:54;;;;;;;8.25;3.38;;;;;;;14.63;80.82;101356.88;10458986;28;20405;-69
2021/08/09 05:42:57;;;;;;;12.55;3.10;;;;;;;14.97;79.80;101362.56;10458317;28;20052;-68
2021/08/09 05:47:59;;;;;;;12.73;4.40;;;;;;;14.67;82.06;101366.28;10424945;28;20055;-67
2021/08/09 05:53:01;;;;;;;5.32;3.58;;;;;;;14.81;81.39;101360.09;10457323;28;20068;-67
2021/08/09 05:58:04;;;;;;;7.82;3.58;;;;;;;15.09;79.93;101373.22;10458373;28;20063;-65
2021/08/09 06:03:06;;;;;;;8.57;3.53;;;;;;;15.08;79.96;101375.03;10457756;28;20052;-65
2021/08/09 06:08:08;;;;;;;8.15;3.15;;;;;;;14.97;81.17;101369.63;10456818;28;20052;-65
2021/08/09 06:13:11;;;;;;;12.45;4.78;;;;;;;14.93;81.40;101368.13;10458444;28;20056;-66
2021/08/09 06:18:13;;;;;;;5.72;3.55;;;;;;;14.75;81.36;101376.31;10457590;28;20484;-65
2021/08/09 06:23:15;;;;;;;8.00;3.85;;;;;;;15.02;80.83;101376.28;10456915;28;20504;-66
2021/08/09 06:28:18;;;;;;;4.55;2.80;;;;;;;14.97;80.24;101382.81;10457438;28;20056;-65
2021/08/09 06:33:20;;;;;;;9.38;4.65;;;;;;;14.81;82.31;101394.38;10457219;28;20056;-68
2021/08/09 06:38:23;;;;;;;8.02;3.35;;;;;;;14.90;82.35;101390.28;10456071;28;20045;-67
2021/08/09 06:43:25;;;;;;;11.45;3.85;;;;;;;14.81;81.23;101394.38;10456883;28;20052;-66
2021/08/09 06:48:28;;;;;;;5.93;3.65;;;;;;;15.16;81.50;101388.56;10457036;28;20045;-67
2021/08/09 06:53:30;;;;;;;10.00;4.30;;;;;;;15.07;81.64;101390.97;10455437;28;20064;-69
2021/08/09 06:58:32;;;;;;;9.27;3.67;;;;;;;15.41;80.25;101392.16;10456239;28;20057;-68
2021/08/09 07:03:35;;;;;;;5.13;3.05;;;;;;;15.59;78.83;101397.97;10456296;28;20413;-67
2021/08/09 07:08:37;;;;;;;8.02;3.53;;;;;;;15.56;78.02;101387.63;10456282;28;20048;-65
2021/08/09 07:13:39;;;;;;;8.25;3.75;;;;;;;15.99;78.42;101392.56;10456265;28;20055;-66
2021/08/09 07:18:42;;;;;;;11.65;3.45;;;;;;;16.55;75.24;101391.25;10456323;28;20056;-66
2021/08/09 07:23:44;;;;;;;10.48;3.35;;;;;;;16.58;74.40;101383.09;10456493;28;20056;-64
2021/08/09 07:28:46;;;;;;;11.52;3.45;;;;;;;17.17;74.61;101379.59;10455907;28;20049;-64
2021/08/09 07:33:49;;;;;;;10.82;3.28;;;;;;;17.19;76.32;101375.84;10455825;28;20428;-68
2021/08/09 07:38:51;;;;;;;4.28;2.40;;;;;;;17.54;71.08;101384.72;10463327;28;20383;-65
2021/08/09 07:43:53;;;;;;;4.05;2.55;;;;;;;17.61;73.23;101392.03;10463695;28;20045;-62
2021/08/09 07:48:56;;;;;;;11.05;3.13;;;;;;;18.47;68.55;101391.50;10463095;28;20052;-63
2021/08/09 07:53:58;;;;;;;17.77;3.08;;;;;;;18.71;67.20;101393.94;10446097;28;20136;-64
2021/08/09 07:59:00;;;;;;;19.40;4.72;;;;;;;18.93;67.21;101385.09;10462897;28;20041;-62
2021/08/09 08:04:03;;;;;;;5.80;3.00;;;;;;;18.74;66.29;101397.22;10463339;28;20068;-61
2021/08/09 08:09:06;;;;;;;6.45;3.03;;;;;;;19.00;67.36;101386.25;10462776;28;20512;-63
2021/08/09 08:14:09;;;;;;;5.10;2.95;;;;;;;19.17;66.93;101392.81;10462962;28;20045;-61
2021/08/09 08:19:11;;;;;;;6.20;2.78;;;;;;;19.36;64.71;101389.41;10462025;28;20404;-61
2021/08/09 08:24:13;;;;;;;7.30;3.30;;;;;;;19.61;65.59;101384.66;10461880;28;20484;-62
2021/08/09 08:29:16;;;;;;;7.85;2.90;;;;;;;19.47;66.02;101386.69;10461955;28;20049;-62
2021/08/09 08:34:18;;;;;;;5.65;2.75;;;;;;;20.32;65.64;101389.94;10461737;28;20106;-61
2021/08/09 08:39:20;;;;;;;4.65;2.10;;;;;;;20.16;66.64;101393.13;10461402;28;20045;-64
2021/08/09 08:44:23;;;;;;;4.53;2.30;;;;;;;19.47;65.04;101384.03;10461277;28;20075;-65
2021/08/09 08:49:26;;;;;;;7.75;2.33;;;;;;;19.66;66.57;101385.94;10459954;28;20098;-63
2021/08/09 08:54:29;;;;;;;6.35;2.38;;;;;;;19.66;61.95;101383.28;10459617;28;20064;-64
2021/08/09 08:59:31;;;;;;;6.18;1.80;;;;;;;20.28;64.41;101379.75;10459641;28;20041;-63
2021/08/09 09:04:36;;;;;;;4.05;1.70;;;;;;;20.41;65.37;101381.16;10459405;28;20049;-63
2021/08/09 09:09:40;;;;;;;10.35;1.98;;;;;;;19.85;64.19;101387.88;10460279;28;20041;-64
2021/08/09 09:14:42;;;;;;;4.25;2.08;;;;;;;21.31;60.94;101383.63;10460073;28;20496;-64
2021/08/09 09:19:45;;;;;;;4.95;2.22;;;;;;;22.06;60.23;101378.31;10442197;28;20045;-64
2021/08/09 09:24:52;;;;;;;4.15;1.70;;;;;;;20.72;60.96;101389.03;10458831;28;20056;-63
2021/08/09 09:29:55;;;;;;;6.35;1.92;;;;;;;20.20;62.77;101394.53;10458981;28;20055;-63
2021/08/09 09:34:58;;;;;;;3.90;1.63;;;;;;;20.85;62.60;101394.09;10458596;28;20056;-63
2021/08/09 09:40:06;;;;;;;4.43;2.50;;;;;;;22.32;61.24;101390.97;10459170;28;20055;-64
2021/08/09 09:45:29;;;;;;;4.00;1.70;;;;;;;23.15;55.59;101380.06;10457883;28;20045;-66
2021/08/09 09:50:33;;;;;;;6.10;1.85;;;;;;;22.49;57.31;101383.97;10459102;28;20083;-64
2021/08/09 09:55:36;;;;;;;5.65;1.65;;;;;;;22.99;59.11;101378.88;10458336;28;20052;-65
2021/08/09 10:00:38;;;;;;;2.88;1.38;;;;;;;21.66;58.56;101387.50;10440270;28;20045;-64
2021/08/09 10:05:42;;;;;;;3.53;1.35;;;;;;;21.48;58.92;101390.06;10457288;28;20064;-65
2021/08/09 10:10:52;;;;;;;3.72;2.05;;;;;;;21.01;60.61;101382.84;10457336;28;20052;-64
2021/08/09 10:15:59;;;;;;;9.02;2.15;;;;;;;21.72;59.28;101378.94;10457774;28;20579;-66
2021/08/09 10:21:04;;;;;;;12.68;3.15;;;;;;;21.77;60.96;101376.66;10457095;28;20051;-65
2021/08/09 10:26:08;;;;;;;17.52;3.58;;;;;;;22.42;58.95;101381.88;10456607;28;20075;-65
2021/08/09 10:31:25;;;;;;;8.05;2.13;;;;;;;21.85;58.64;101392.72;10457089;28;20049;-64
2021/08/09 10:36:29;;;;;;;5.38;1.90;;;;;;;22.68;54.73;101378.47;10457977;28;20076;-67
2021/08/09 10:41:36;;;;;;;9.90;2.13;;;;;;;24.70;52.39;101370.97;10455619;28;20056;-66
2021/08/09 10:46:45;;;;;;;3.25;1.52;;;;;;;22.89;54.50;101374.66;10456430;28;20452;-65
2021/08/09 10:51:53;;;;;;;3.53;1.40;;;;;;;22.07;55.80;101390.66;10455474;28;20079;-65
2021/08/09 10:56:57;;;;;;;4.88;1.35;;;;;;;22.44;56.90;101392.41;10456570;28;20057;-65
2021/08/09 11:02:00;;;;;;;4.10;1.40;;;;;;;24.16;53.51;101383.88;10455296;28;20045;-66
2021/08/09 11:07:16;;;;;;;3.25;1.20;;;;;;;22.56;54.18;101390.38;10438370;28;20106;-65
2021/08/09 11:12:25;;;;;;;5.72;1.00;;;;;;;21.60;57.36;101399.59;10460924;28;20492;-66
2021/08/09 11:17:32;;;;;;;2.78;1.00;;;;;;;21.60;58.92;101402.25;10431104;28;20519;-65
2021/08/09 11:22:35;;;;;;;3.13;1.40;;;;;;;21.25;60.70;101402.84;10465006;28;20063;-66
2021/08/09 11:27:54;;;;;;;5.53;1.67;;;;;;;20.84;64.48;101415.50;10463324;28;20052;-65
2021/08/09 11:32:57;;;;;;;3.78;1.27;;;;;;;20.83;62.46;101414.69;10464124;28;20049;-66
2021/08/09 11:38:01;;;;;;;2.38;0.85;;;;;;;21.15;60.00;101416.19;10463283;28;20041;-66
2021/08/09 11:43:03;;;;;;;4.97;1.13;;;;;;;21.03;61.36;101412.00;10463895;28;20489;-67
2021/08/09 11:48:08;;;;;;;2.45;1.30;;;;;;;20.49;58.56;101401.72;10462191;28;20047;-66
2021/08/09 11:53:10;;;;;;;4.68;1.42;;;;;;;20.07;62.21;101401.09;10462442;28;20060;-66
2021/08/09 11:58:30;;;;;;;4.30;1.20;;;;;;;20.00;65.42;101412.25;10461913;28;20057;-67
2021/08/09 12:03:33;;;;;;;2.50;1.05;;;;;;;22.06;61.96;101415.66;10461958;28;20054;-66
2021/08/09 12:08:56;;;;;;;2.92;1.70;;;;;;;22.03;57.91;101408.78;10461975;28;20098;-65
2021/08/09 12:14:15;;;;;;;3.85;1.30;;;;;;;22.44;55.32;101405.75;10461890;28;20048;-65
2021/08/09 12:19:20;;;;;;;2.05;1.00;;;;;;;20.93;59.39;101406.66;10462360;28;20053;-67
2021/08/09 12:24:23;;;;;;;1.60;1.08;;;;;;;20.93;59.69;101410.19;10462070;28;20053;-65
2021/08/09 12:29:26;;;;;;;2.92;1.50;;;;;;;20.54;61.36;101417.28;10461886;28;20044;-65
2021/08/09 12:34:28;;;;;;;3.38;1.50;;;;;;;21.20;61.08;101410.44;10444422;28;20053;-65
2021/08/09 12:39:35;;;;;;;6.07;1.25;;;;;;;23.46;54.65;101398.28;10461570;28;20049;-65
2021/08/09 12:44:38;;;;;;;3.78;1.10;;;;;;;20.92;57.45;101410.31;10460476;28;20072;-65
2021/08/09 12:49:41;;;;;;;3.00;1.27;;;;;;;20.81;60.41;101413.94;10459806;28;20511;-64
2021/08/09 12:54:43;;;;;;;3.53;1.33;;;;;;;20.55;62.18;101408.31;10459634;28;20515;-65
2021/08/09 12:59:45;;;;;;;4.32;1.45;;;;;;;24.13;52.63;101394.94;10461333;28;20041;-65
2021/08/09 13:04:48;;;;;;;3.33;1.23;;;;;;;22.40;56.80;101396.38;10461334;28;20057;-65
2021/08/09 13:09:50;;;;;;;4.05;1.40;;;;;;;21.29;59.01;101397.09;10460215;28;20041;-64
2021/08/09 13:14:53;;;;;;;2.55;1.10;;;;;;;22.30;55.93;101404.44;10459211;28;20064;-66
2021/08/09 13:19:55;;;;;;;5.82;1.63;;;;;;;22.32;53.80;101399.78;10459573;28;20088;-67
2021/08/09 13:24:58;;;;;;;3.47;1.23;;;;;;;21.87;55.14;101387.25;10459084;28;20049;-64
2021/08/09 13:30:02;;;;;;;2.58;0.98;;;;;;;21.50;58.20;101391.63;10459111;28;20508;-65
2021/08/09 13:35:05;;;;;;;3.08;1.27;;;;;;;21.01;60.94;101393.50;10458311;28;20060;-63
2021/08/09 13:40:08;;;;;;;5.63;1.30;;;;;;;20.14;65.00;101391.56;10458107;28;20041;-65
2021/08/09 13:45:10;;;;;;;4.07;1.88;;;;;;;20.44;67.08;101400.47;10459227;28;20049;-64
2021/08/09 13:50:13;;;;;;;4.65;1.85;;;;;;;20.32;66.30;101387.28;10458731;28;20045;-65
2021/08/09 13:55:15;;;;;;;2.88;1.80;;;;;;;21.03;67.10;101390.69;10460065;28;20135;-66
2021/08/09 14:00:20;;;;;;;5.70;1.70;;;;;;;21.17;60.24;101382.28;10457327;28;20060;-66
2021/08/09 14:05:23;;;;;;;4.50;1.50;;;;;;;20.40;62.93;101398.06;10457877;28;20056;-68
2021/08/09 14:10:25;;;;;;;1.65;1.50;;;;;;;20.81;62.84;101392.66;10458055;28;20088;-66
2021/08/09 14:15:28;;;;;;;5.90;2.70;;;;;;;21.73;59.42;101391.25;10456656;28;20063;-66
2021/08/09 14:20:30;;;;;;;2.92;1.20;;;;;;;23.60;53.90;101376.28;10457651;28;20382;-66
2021/08/09 14:25:36;;;;;;;2.47;1.30;;;;;;;23.79;53.96;101385.06;10457898;28;20049;-67
2021/08/09 14:30:39;;;;;;;2.65;1.48;;;;;;;22.31;59.12;101387.47;10455966;28;20485;-66
2021/08/09 14:35:42;;;;;;;3.08;1.42;;;;;;;22.16;57.95;101386.28;10457075;28;20508;-66
2021/08/09 14:40:45;;;;;;;3.42;1.50;;;;;;;21.57;58.27;101402.53;10456808;28;20048;-69
2021/08/09 14:45:47;;;;;;;3.60;1.45;;;;;;;21.61;59.97;101398.59;10455672;28;20056;-68
2021/08/09 14:50:49;;;;;;;2.08;1.42;;;;;;;21.19;58.39;101384.81;10456503;28;20053;-66
2021/08/09 14:55:52;;;;;;;3.67;1.52;;;;;;;21.46;58.44;101387.53;10456786;28;20057;-65
2021/08/09 15:00:54;;;;;;;4.15;1.35;;;;;;;22.20;58.10;101384.97;10456813;28;20045;-66
2021/08/09 15:05:57;;;;;;;5.00;1.60;;;;;;;21.45;56.89;101383.19;10438785;28;20382;-66
2021/08/09 15:10:59;;;;;;;3.00;1.55;;;;;;;21.45;59.78;101377.00;10456233;28;20486;-66
2021/08/09 15:16:01;;;;;;;4.97;1.77;;;;;;;21.49;61.18;101371.28;10456193;28;20509;-66
2021/08/09 15:21:04;;;;;;;3.47;1.40;;;;;;;22.18;61.02;101390.44;10455910;28;20048;-66
2021/08/09 15:26:07;;;;;;;2.42;1.73;;;;;;;22.24;58.92;101379.19;10455873;28;20111;-68
2021/08/09 15:31:09;;;;;;;5.53;1.70;;;;;;;22.01;55.52;101381.44;10455981;28;20056;-66
2021/08/09 15:36:12;;;;;;;3.33;2.05;;;;;;;22.85;55.34;101376.78;10455910;28;20053;-67
2021/08/09 15:41:15;;;;;;;2.78;1.60;;;;;;;23.07;53.44;101369.31;10455784;28;20060;-64
2021/08/09 15:46:19;;;;;;;3.10;1.30;;;;;;;22.45;56.94;101383.44;10455630;28;20393;-65
2021/08/09 15:51:22;;;;;;;4.30;1.85;;;;;;;21.41;60.63;101370.31;10455701;28;20053;-66
2021/08/09 15:56:25;;;;;;;2.67;1.27;;;;;;;21.21;61.11;101374.84;10457842;28;20056;-65
2021/08/09 16:01:27;;;;;;;2.83;1.50;;;;;;;21.68;61.57;101382.84;10462072;28;20550;-66
2021/08/09 16:06:30;;;;;;;2.08;1.48;;;;;;;21.66;59.95;101384.84;10463276;28;20631;-63
2021/08/09 16:11:32;;;;;;;2.08;1.60;;;;;;;21.17;58.80;101379.63;10463088;28;20045;-65
2021/08/09 16:16:49;;;;;;;2.78;1.25;;;;;;;21.29;60.76;101394.44;10462651;28;20049;-65
2021/08/09 16:21:52;;;;;;;5.07;1.92;;;;;;;20.65;62.16;101403.88;10462927;28;20041;-65
2021/08/09 16:26:54;;;;;;;5.28;1.35;;;;;;;20.73;61.99;101398.72;10460917;28;20102;-65
2021/08/09 16:31:57;;;;;;;1.95;1.63;;;;;;;20.73;62.65;101409.34;10444346;28;20057;-64
2021/08/09 16:36:59;;;;;;;1.70;1.30;;;;;;;20.21;63.82;101414.00;10427741;28;20540;-64
2021/08/09 16:42:05;;;;;;;2.58;1.60;;;;;;;20.06;63.83;101421.50;10461769;28;20488;-65
2021/08/09 16:47:07;;;;;;;1.77;1.30;;;;;;;20.53;62.80;101418.28;10461191;28;20406;-66
2021/08/09 16:52:10;;;;;;;2.45;1.63;;;;;;;19.95;64.81;101418.94;10461402;28;20409;-67
2021/08/09 16:57:27;;;;;;;4.15;1.48;;;;;;;19.96;64.82;101418.81;10461314;28;20049;-66
2021/08/09 17:02:30;;;;;;;2.65;1.85;;;;;;;19.59;67.11;101424.63;10461219;28;20048;-65
2021/08/09 17:07:32;;;;;;;6.68;2.08;;;;;;;19.44;66.06;101423.28;10460562;28;20052;-64
2021/08/09 17:12:34;;;;;;;2.55;1.25;;;;;;;19.38;67.95;101419.31;10460516;28;20052;-66
2021/08/09 17:17:38;;;;;;;5.03;1.95;;;;;;;19.47;67.83;101428.34;10460128;28;20049;-66
2021/08/09 17:22:40;;;;;;;2.15;1.73;;;;;;;19.12;68.56;101424.19;10459131;28;20067;-65
2021/08/09 17:27:43;;;;;;;4.90;1.50;;;;;;;19.27;67.72;101425.56;10459910;28;20052;-64
2021/08/09 17:32:45;;;;;;;2.10;1.60;;;;;;;19.39;66.75;101430.81;10460352;28;20052;-65
2021/08/09 17:37:48;;;;;;;1.65;1.20;;;;;;;19.21;67.51;101439.34;10459263;28;20416;-65
2021/08/09 17:42:51;;;;;;;1.08;1.00;;;;;;;19.01;68.14;101448.13;10441393;28;20045;-65
2021/08/09 17:47:56;;;;;;;5.07;1.45;;;;;;;18.95;70.64;101444.19;10459087;28;20049;-65
2021/08/09 17:52:59;;;;;;;2.40;1.33;;;;;;;18.64;73.77;101451.13;10458170;28;20084;-64
2021/08/09 17:58:01;;;;;;;1.73;1.13;;;;;;;18.52;73.64;101456.44;10457506;28;20049;-64
2021/08/09 18:03:03;;;;;;;1.67;1.58;;;;;;;18.50;73.02;101457.53;10458398;28;20485;-65
2021/08/09 18:08:07;;;;;;;2.92;1.25;;;;;;;18.10;73.53;101458.91;10458164;28;20045;-65
2021/08/09 18:13:09;;;;;;;3.10;1.63;;;;;;;18.02;70.79;101448.06;10457895;28;20409;-66
2021/08/09 18:18:11;;;;;;;2.13;0.93;;;;;;;17.94;71.35;101446.03;10457151;28;20059;-63
2021/08/09 18:23:34;;;;;;;3.90;1.50;;;;;;;17.60;74.65;101458.34;10457269;28;20102;-65
2021/08/09 18:28:37;;;;;;;1.60;1.45;;;;;;;17.65;74.07;101461.47;10439869;28;20041;-67
2021/08/09 18:33:39;;;;;;;7.13;2.00;;;;;;;17.35;75.14;101446.13;10457200;28;20048;-65
2021/08/09 18:38:43;;;;;;;4.82;1.30;;;;;;;17.18;76.19;101442.13;10457025;28;20045;-64
2021/08/09 18:43:50;;;;;;;3.08;1.75;;;;;;;17.20;76.41;101449.00;10457344;28;20049;-64
2021/08/09 18:48:52;;;;;;;3.38;1.48;;;;;;;16.73;78.71;101442.75;10456769;28;20048;-64
2021/08/09 18:53:54;;;;;;;1.30;1.08;;;;;;;16.64;79.30;101452.22;10456422;28;20061;-65
2021/08/09 18:58:58;;;;;;;3.85;1.40;;;;;;;16.79;78.87;101458.16;10439484;28;20106;-66
2021/08/09 19:04:01;;;;;;;4.75;1.58;;;;;;;16.73;78.91;101461.28;10439497;28;20052;-65
2021/08/09 19:09:04;;;;;;;3.33;1.90;;;;;;;16.89;77.99;101453.94;10454794;28;20145;-65
2021/08/09 19:14:07;;;;;;;6.40;1.85;;;;;;;16.88;78.02;101456.69;10457142;28;20048;-64
2021/08/09 19:19:09;;;;;;;4.88;1.95;;;;;;;16.91;78.03;101472.31;10455126;28;20056;-64
2021/08/09 19:24:11;;;;;;;6.93;1.90;;;;;;;17.11;77.62;101473.50;10455557;28;20074;-66
2021/08/09 19:29:14;;;;;;;2.40;1.83;;;;;;;17.20;76.68;101479.91;10456140;28;20045;-65
2021/08/09 19:34:17;;;;;;;2.42;1.60;;;;;;;17.08;77.86;101479.03;10463109;28;20052;-65
2021/08/09 19:39:20;;;;;;;3.45;2.22;;;;;;;16.99;78.50;101483.19;10464232;28;20504;-65
2021/08/09 19:44:27;;;;;;;3.65;2.13;;;;;;;17.00;78.93;101484.03;10464382;28;20056;-66
2021/08/09 19:49:29;;;;;;;4.38;2.45;;;;;;;17.02;78.79;101493.53;10463789;28;20056;-65
2021/08/09 19:54:32;;;;;;;3.17;2.20;;;;;;;16.80;80.40;101490.75;10462268;28;20057;-66
2021/08/09 19:59:35;;;;;;;3.33;2.40;;;;;;;16.86;80.13;101501.75;10463011;28;20429;-66
2021/08/09 20:04:41;;;;;;;2.67;2.47;;;;;;;16.99;79.42;101501.69;10462460;28;20049;-68
2021/08/09 20:09:43;;;;;;;6.22;2.53;;;;;;;16.79;80.41;101500.47;10461672;28;20390;-65
2021/08/09 20:14:45;;;;;;;7.60;3.15;;;;;;;16.67;81.25;101501.38;10462180;28;20497;-65
2021/08/09 20:19:48;;;;;;;3.45;2.58;;;;;;;16.68;81.22;101500.41;10462545;28;20067;-67
2021/08/09 20:24:50;;;;;;;5.60;3.35;;;;;;;16.60;81.72;101498.31;10462896;28;20055;-65
2021/08/09 20:29:52;;;;;;;6.22;3.50;;;;;;;16.80;81.40;101496.03;10462060;28;20056;-65
2021/08/09 20:34:55;;;;;;;6.88;2.97;;;;;;;16.52;82.17;101492.72;10461909;28;20049;-65
2021/08/09 20:39:57;;;;;;;4.32;3.13;;;;;;;16.51;82.37;101501.63;10461933;28;20102;-65
2021/08/09 20:45:00;;;;;;;4.72;3.10;;;;;;;16.50;81.75;101499.94;10443520;28;20489;-66
2021/08/09 20:50:02;;;;;;;3.47;3.17;;;;;;;16.57;82.34;101490.59;10461947;28;20049;-65
2021/08/09 20:55:05;;;;;;;7.70;3.83;;;;;;;16.41;82.75;101497.94;10461089;28;20068;-66
2021/08/09 21:00:08;;;;;;;4.78;3.55;;;;;;;16.40;82.58;101497.09;10460722;28;20056;-64
2021/08/09 21:05:10;;;;;;;5.80;4.00;;;;;;;16.30;82.96;101496.06;10461065;28;20052;-66
2021/08/09 21:10:13;;;;;;;7.35;3.42;;;;;;;16.42;82.79;101495.19;10459812;28;20477;-65
2021/08/09 21:15:15;;;;;;;5.93;3.40;;;;;;;16.25;82.99;101483.16;10460223;28;20049;-66
2021/08/09 21:20:18;;;;;;;4.90;4.22;;;;;;;16.44;81.98;101492.44;10458961;28;20408;-68
2021/08/09 21:25:20;;;;;;;6.57;3.60;;;;;;;16.60;81.76;101489.56;10458788;28;20045;-64
2021/08/09 21:30:22;;;;;;;5.60;4.45;;;;;;;16.42;81.95;101495.19;10459973;28;20075;-65
2021/08/09 21:35:25;;;;;;;6.43;4.45;;;;;;;16.15;84.06;101484.75;10459544;28;20052;-65
2021/08/09 21:40:29;;;;;;;9.38;4.30;;;;;;;16.41;82.14;101498.78;10458303;28;20051;-66
2021/08/09 21:45:31;;;;;;;6.05;3.60;;;;;;;16.29;83.32;101497.00;10457952;28;20056;-66
2021/08/09 21:50:34;;;;;;;7.43;4.15;;;;;;;16.31;82.94;101488.03;10458818;28;20501;-65
2021/08/09 21:55:36;;;;;;;7.50;4.55;;;;;;;16.43;83.11;101493.41;10457140;28;20057;-64
2021/08/09 22:00:39;;;;;;;4.95;3.47;;;;;;;16.52;82.22;101493.59;10458677;28;20041;-66
2021/08/09 22:05:41;;;;;;;7.20;4.63;;;;;;;16.54;82.45;101496.09;10458577;28;20102;-65
2021/08/09 22:10:45;;;;;;;6.03;4.63;;;;;;;16.32;82.81;101502.06;10458167;28;20396;-67
2021/08/09 22:15:47;;;;;;;7.97;4.38;;;;;;;16.30;82.71;101499.53;10457901;28;20049;-66
2021/08/09 22:20:50;;;;;;;9.50;3.78;;;;;;;16.37;82.15;101496.47;10458133;28;20104;-66
2021/08/09 22:25:52;;;;;;;6.82;4.60;;;;;;;16.43;82.27;101494.25;10457636;28;20053;-64
2021/08/09 22:30:54;;;;;;;6.68;3.55;;;;;;;16.69;81.40;101504.72;10457752;28;20053;-64
2021/08/09 22:35:58;;;;;;;4.43;3.70;;;;;;;16.60;81.69;101506.25;10457248;28;20049;-66
2021/08/09 22:41:00;;;;;;;7.03;4.70;;;;;;;16.19;83.60;101507.38;10457105;28;20481;-66
2021/08/09 22:46:02;;;;;;;5.25;4.38;;;;;;;16.12;84.23;101511.38;10456994;28;20055;-66
2021/08/09 22:51:05;;;;;;;6.78;4.93;;;;;;;16.02;84.02;101505.06;10456825;28;20091;-65
2021/08/09 22:56:07;;;;;;;7.00;4.78;;;;;;;15.93;84.72;101503.91;10456717;28;20409;-65
2021/08/09 23:01:11;;;;;;;4.10;3.47;;;;;;;16.14;83.26;101501.59;10457677;28;20052;-66
2021/08/09 23:06:14;;;;;;;4.72;3.95;;;;;;;15.98;83.70;101502.63;10455772;28;20049;-67
2021/08/09 23:11:17;;;;;;;6.72;3.83;;;;;;;15.64;84.30;101513.78;10455334;28;20052;-65
2021/08/09 23:16:19;;;;;;;6.60;4.63;;;;;;;15.66;85.18;101517.16;10454946;28;20544;-66